Northern Sonoma County Latest

25 Stations

15 Minute Data | America/Los_Angeles
as of 5/6/26 5:53 AM PDT
Station Date Time Temp (°F) RH (%) Dew Pt (°F) Wind Spd (mph) Wind Dir (°) Wind Gust (mph) Latest Rain (In) Daily Rain (In) Daily Max Temp (°F) Daily Min Temp (°F)
Bavarian Lion EFW 5/6/26 0545 54.3   2.1 - - - - - 0.00 0.00 55.4   2.6 54.3   2.2
Rockpile Lower (Cooley) 5/6/26 0530 52.7   3.9 92   1 50.4   4.1 0.0   5.7 N | 0 0.0   9.4 0.00 0.00 53.4   3.8 52.4   3.8
Rockpile Upper (Cooley) 5/6/26 0545 48.8   3.4 100   0 48.8   3.4 4.6   3.9 NNW | 340 7.7   4.4 0.00 0.00 50.2   3.8 48.6   3.5
Lower Dry Creek Valley 5/6/26 0545 55.1   2.9 90   10 52.2   0.0 0.0   0.0 N | 0 0.0   0.0 0.00 0.00 56.0   2.0 55.0   2.9
Geyserville-South (Nervo Station) 5/6/26 0545 54.5   3.6 - - 0.0   0.2 N | 0 0.0   2.4 0.00 0.00 55.4   2.5 54.2   3.6
Franz Valley (Stornetta) 5/6/26 0545 53.5   2.0 92   4 51.2   0.8 1.7   0.9 NNW | 339 3.0   1.4 0.00 0.00 54.7   2.5 53.4   2.0
Geyserville (Ranch 3) 5/6/26 0545 55.6   3.3 88   12 52.0   0.3 1.5   1.5 E | 94 3.5   3.5 0.00 0.00 56.7   3.1 55.5   3.4
Geyserville-North (Hoffman) 5/6/26 0545 56.1   4.7 87   6 52.3   2.6 1.7   0.4 E | 101 3.6   1.8 0.00 0.00 57.0   3.5 55.9   4.7
Knights Valley (Bavarian Lion) 5/6/26 0545 53.6   2.3 90   4 50.8   1.2 0.9   0.2 N | 2 2.1   0.9 0.00 0.00 55.0   2.9 53.6   2.3
HWY 128/Chalk Hill Rd (Landslide) 5/6/26 0400 55.2   2.5 87   8 51.5   0.0 1.0   0.9 WSW | 238 2.4   1.4 0.00 0.00 55.9   2.8 55.2   2.7
Newman Knights Valley 5/6/26 0545 54.6   1.9 84   2 49.8   1.1 1.0   1.0 SW | 234 3.1   2.5 0.00 0.00 55.9   2.6 54.5   1.9
Jimtown-North (Piccolo Ranch 15) 5/6/26 0545 55.0   2.3 86   14 51.1   1.6 0.0   1.0 SSW | 212 1.1   2.4 0.00 0.00 56.3   2.5 54.8   2.7
Peterson (Ranch 09) 5/6/26 0545 54.2   2.1 88   4 50.7   1.1 1.3   0.9 SSE | 165 2.3   0.0 0.00 0.00 55.2   1.7 54.1   2.1
Cloverdale-SE (Ranch 38) 5/6/26 0545 53.9   3.5 94   0 52.1   3.6 1.4   2.6 SSE | 168 2.3   3.5 0.00 0.00 54.9   3.0 53.8   3.5
Geyserville-East (Ranch 40) 5/6/26 0530 52.4   2.1 97   2 51.5   2.6 3.2   0.0 S | 191 4.6   0.3 0.00 0.00 53.9   3.0 52.3   2.4
N Chalk Hill Rd (Ranch 63) 5/6/26 0545 53.8   4.5 88   12 50.2   1.0 0.4   0.4 SSE | 167 1.2   0.5 0.00 0.00 54.9   4.7 53.8   4.7
Cloverdale-East (Ranch 83) 5/6/26 0545 55.5   4.9 - - 0.8   0.3 S | 180 2.1   0.2 0.00 0.00 56.8   3.8 55.4   5.2
Crazy Creek Ranch 5/6/26 0545 55.3   3.1 91   6 52.7   1.2 0.6   0.5 SSW | 207 1.8   0.4 0.00 0.00 56.3   2.5 55.2   3.2
Lytton East (Hill 5) 5/6/26 0545 53.9   2.9 90   4 51.2   1.6 0.7   1.0 SSW | 196 2.3   1.3 0.00 0.00 54.8   2.0 53.9   3.2
Lytton East (Shop Hill Bottom) 5/6/26 0545 54.2   2.9 88   6 50.9   0.9 0.2   1.1 S | 180 1.4   1.3 0.00 0.00 55.1   2.1 54.2   3.0
Lytton West Hill (23PS) 5/6/26 0545 54.7   2.9 89   8 51.6   0.5 0.8   0.1 SE | 129 2.0   0.0 0.00 0.00 55.2   1.5 54.6   2.9
Lytton West Lower (Lew 6) 5/6/26 0545 54.3   2.5 89   11 51.2   0.5 0.8   0.0 S | 177 1.6   0.7 0.00 0.00 55.4   2.0 54.2   2.7
Whitton Ranch (201e) 5/6/26 0545 54.6   3.1 89   7 51.6   1.1 1.2   0.9 SE | 145 2.0   0.1 0.00 0.00 55.6   2.4 54.6   3.3
Upper Dry Creek Valley 5/6/26 0500 55.3   3.0 87   8 51.4   0.5 1.5   0.1 SE | 126 2.8   0.1 0.00 0.00 56.2   2.6 55.2   3.7
Big River 5/6/26 0545 54.5   2.2 92   6 52.3   0.4 1.4   1.2 SSE | 155 2.2   1.1 0.00 0.00 55.1   2.2 54.4   2.4
Max     56.1 100 52.7 4.6 - 7.7 0.00 0.00 57.0 55.9
Avg     54.2 90 51.2 1.1 - 2.3 0.00 - - -
Min     48.8 84 48.8 0.0 - 0.0 0.00 0.00 50.2 48.6